Time;durP1;ratioP1;P1;durP2;ratioP2;P2;SDS_P1;SDS_P2;PMS_P1;PMS_P2;Temp;Humidity;BMP_temperature;BMP_pressure;BME280_temperature;BME280_humidity;BME280_pressure;Samples;Min_cycle;Max_cycle;Signal;HPM_P1;HPM_P2
2022/03/04 00:02:16;;;;;;;26.23;23.52;;;;;;;;;;4931036;29;20155;-80
2022/03/04 00:04:42;;;;;;;15.60;11.85;;;;;;;;;;4935054;29;20047;-79
2022/03/04 00:07:08;;;;;;;17.45;12.98;;;;;;;;;;4936112;29;20048;-79
2022/03/04 00:09:34;;;;;;;15.95;12.32;;;;;;;;;;4934701;29;20073;-79
2022/03/04 00:12:07;;;;;;;15.93;12.23;;;;;;;;;;4936839;29;20389;-79
2022/03/04 00:14:33;;;;;;;15.23;12.07;;;;;;;;;;4936286;29;20090;-80
2022/03/04 00:16:59;;;;;;;15.25;12.18;;;;;;;;;;4937098;29;20496;-80
2022/03/04 00:19:25;;;;;;;15.63;12.73;;;;;;;;;;4933197;29;20042;-80
2022/03/04 00:21:51;;;;;;;15.25;12.23;;;;;;;;;;4935538;29;20043;-80
2022/03/04 00:24:18;;;;;;;15.00;11.73;;;;;;;;;;4935281;29;20044;-80
2022/03/04 00:26:44;;;;;;;15.82;11.88;;;;;;;;;;4934174;29;20091;-80
2022/03/04 00:29:11;;;;;;;17.17;12.43;;;;;;;;;;4934302;29;20582;-78
2022/03/04 00:31:40;;;;;;;17.73;12.57;;;;;;;;;;4936422;29;20055;-80
2022/03/04 00:34:07;;;;;;;16.58;12.57;;;;;;;;;;4925591;29;20059;-80
2022/03/04 00:36:37;;;;;;;15.32;12.48;;;;;;;;;;4933515;29;20099;-80
2022/03/04 00:39:04;;;;;;;14.55;12.40;;;;;;;;;;4936435;29;20063;-80
2022/03/04 00:41:30;;;;;;;16.02;11.75;;;;;;;;;;4936159;29;20083;-80
2022/03/04 00:43:56;;;;;;;16.40;12.25;;;;;;;;;;4938158;29;20054;-80
2022/03/04 00:46:22;;;;;;;16.15;12.15;;;;;;;;;;4943382;29;20052;-79
2022/03/04 00:48:49;;;;;;;15.77;11.48;;;;;;;;;;4925681;29;20078;-80
2022/03/04 00:51:15;;;;;;;16.00;12.52;;;;;;;;;;4934250;29;20110;-79
2022/03/04 00:53:41;;;;;;;14.80;11.90;;;;;;;;;;4934445;29;20054;-80
2022/03/04 00:56:08;;;;;;;17.45;12.05;;;;;;;;;;4934846;29;20474;-80
2022/03/04 00:58:35;;;;;;;14.82;11.43;;;;;;;;;;4937815;29;20039;-79
2022/03/04 01:01:01;;;;;;;13.82;11.02;;;;;;;;;;4933571;29;20048;-80
2022/03/04 01:03:27;;;;;;;15.07;11.75;;;;;;;;;;4935947;29;20496;-80
2022/03/04 01:05:53;;;;;;;15.65;12.60;;;;;;;;;;4936218;29;20071;-80
2022/03/04 01:08:19;;;;;;;16.92;11.85;;;;;;;;;;4932944;29;20047;-79
2022/03/04 01:10:45;;;;;;;16.65;12.45;;;;;;;;;;4930236;29;20496;-80
2022/03/04 01:13:11;;;;;;;15.50;12.23;;;;;;;;;;4935559;29;20476;-79
2022/03/04 01:15:37;;;;;;;16.88;12.63;;;;;;;;;;4934893;29;20082;-80
2022/03/04 01:18:04;;;;;;;15.07;11.80;;;;;;;;;;4934782;29;20075;-80
2022/03/04 01:20:31;;;;;;;14.93;11.80;;;;;;;;;;4934275;29;20108;-80
2022/03/04 01:22:57;;;;;;;17.42;11.60;;;;;;;;;;4935186;29;20058;-80
2022/03/04 01:25:23;;;;;;;15.02;11.32;;;;;;;;;;4932324;29;20572;-80
2022/03/04 01:27:50;;;;;;;15.88;10.68;;;;;;;;;;4930599;29;20073;-80
2022/03/04 01:30:16;;;;;;;14.63;10.98;;;;;;;;;;4930822;29;20040;-80
2022/03/04 01:32:42;;;;;;;14.25;11.40;;;;;;;;;;4934558;29;20091;-80
2022/03/04 01:35:08;;;;;;;14.05;11.68;;;;;;;;;;4930434;29;20480;-80
2022/03/04 01:37:37;;;;;;;14.93;11.73;;;;;;;;;;4933565;29;20377;-80
2022/03/04 01:40:04;;;;;;;16.90;11.52;;;;;;;;;;4934330;29;20150;-80
2022/03/04 01:42:31;;;;;;;15.32;11.45;;;;;;;;;;4940040;29;20047;-79
2022/03/04 01:44:57;;;;;;;14.15;10.98;;;;;;;;;;4932553;29;20110;-79
2022/03/04 01:47:23;;;;;;;15.23;11.02;;;;;;;;;;4936341;29;20043;-81
2022/03/04 01:49:49;;;;;;;14.70;10.80;;;;;;;;;;4934241;29;20047;-79
2022/03/04 01:52:15;;;;;;;14.23;10.82;;;;;;;;;;4931582;29;20058;-80
2022/03/04 01:54:41;;;;;;;15.00;10.88;;;;;;;;;;4934272;29;20054;-79
2022/03/04 01:57:07;;;;;;;14.20;10.15;;;;;;;;;;4934484;29;20094;-80
2022/03/04 01:59:33;;;;;;;14.10;10.80;;;;;;;;;;4930458;29;20098;-80
2022/03/04 02:01:59;;;;;;;14.38;9.90;;;;;;;;;;4928367;29;20050;-79
2022/03/04 02:04:25;;;;;;;14.23;10.55;;;;;;;;;;4932340;29;20044;-80
2022/03/04 02:06:51;;;;;;;12.65;10.02;;;;;;;;;;4934233;29;20412;-80
2022/03/04 02:09:17;;;;;;;13.88;10.95;;;;;;;;;;4933322;29;20043;-79
2022/03/04 02:11:44;;;;;;;14.20;10.88;;;;;;;;;;4933834;29;20590;-80
2022/03/04 02:14:13;;;;;;;12.85;10.00;;;;;;;;;;4931510;29;20051;-80
2022/03/04 02:16:49;;;;;;;13.50;10.35;;;;;;;;;;4932750;29;20054;-80
2022/03/04 02:19:15;;;;;;;13.48;9.95;;;;;;;;;;4931279;29;20048;-80
2022/03/04 02:21:43;;;;;;;12.50;9.93;;;;;;;;;;4933539;29;20039;-80
2022/03/04 02:24:10;;;;;;;13.57;9.82;;;;;;;;;;4931187;29;20759;-80
2022/03/04 02:26:36;;;;;;;14.50;9.70;;;;;;;;;;4934317;29;20055;-79
2022/03/04 02:29:02;;;;;;;13.20;9.57;;;;;;;;;;4931453;29;20052;-80
2022/03/04 02:31:28;;;;;;;15.02;9.63;;;;;;;;;;4929256;29;20119;-80
2022/03/04 02:33:54;;;;;;;12.77;10.32;;;;;;;;;;4933991;29;20050;-80
2022/03/04 02:36:20;;;;;;;12.80;9.43;;;;;;;;;;4932465;29;20048;-80
2022/03/04 02:38:46;;;;;;;12.85;9.85;;;;;;;;;;4931156;29;20075;-80
2022/03/04 02:41:12;;;;;;;13.02;10.23;;;;;;;;;;4930461;29;20044;-80
2022/03/04 02:43:38;;;;;;;13.65;9.57;;;;;;;;;;4931949;29;20047;-80
2022/03/04 02:46:04;;;;;;;12.82;10.07;;;;;;;;;;4930094;29;20468;-80
2022/03/04 02:48:31;;;;;;;13.35;9.48;;;;;;;;;;4932285;29;20062;-80
2022/03/04 02:50:57;;;;;;;12.80;8.88;;;;;;;;;;4929910;29;20452;-80
2022/03/04 02:53:23;;;;;;;12.20;9.05;;;;;;;;;;4930430;29;20058;-80
2022/03/04 02:55:49;;;;;;;12.02;9.35;;;;;;;;;;4925215;29;20059;-80
2022/03/04 02:58:15;;;;;;;14.27;9.55;;;;;;;;;;4929429;29;20043;-81
2022/03/04 03:00:41;;;;;;;12.02;8.95;;;;;;;;;;4930737;29;20052;-80
2022/03/04 03:03:07;;;;;;;12.88;9.43;;;;;;;;;;4930287;29;20071;-80
2022/03/04 03:05:33;;;;;;;12.30;8.63;;;;;;;;;;4929923;29;20190;-81
2022/03/04 03:07:59;;;;;;;12.38;9.15;;;;;;;;;;4932414;29;20500;-81
2022/03/04 03:10:25;;;;;;;10.50;8.65;;;;;;;;;;4933313;29;20115;-81
2022/03/04 03:12:51;;;;;;;10.88;8.32;;;;;;;;;;4932871;29;20147;-80
2022/03/04 03:15:17;;;;;;;10.77;8.02;;;;;;;;;;4931255;29;20074;-80
2022/03/04 03:17:43;;;;;;;12.63;9.10;;;;;;;;;;4935086;29;20051;-80
2022/03/04 03:20:28;;;;;;;12.10;9.07;;;;;;;;;;4931753;29;20039;-81
2022/03/04 03:22:54;;;;;;;11.35;8.48;;;;;;;;;;4928758;29;20059;-81
2022/03/04 03:25:23;;;;;;;10.15;7.95;;;;;;;;;;4931652;29;20119;-81
2022/03/04 03:27:49;;;;;;;12.10;8.50;;;;;;;;;;4931631;29;20071;-80
2022/03/04 03:30:15;;;;;;;10.88;7.97;;;;;;;;;;4932513;29;20091;-80
2022/03/04 03:32:41;;;;;;;11.93;8.98;;;;;;;;;;4933242;29;20109;-79
2022/03/04 03:35:08;;;;;;;10.75;8.45;;;;;;;;;;4932078;29;20463;-80
2022/03/04 03:37:34;;;;;;;12.63;9.10;;;;;;;;;;4925631;29;20059;-80
2022/03/04 03:40:01;;;;;;;13.40;9.23;;;;;;;;;;4925363;29;20481;-80
2022/03/04 03:42:27;;;;;;;11.45;8.27;;;;;;;;;;4930943;29;20059;-80
2022/03/04 03:44:53;;;;;;;10.20;8.10;;;;;;;;;;4933321;29;20417;-80
2022/03/04 03:47:19;;;;;;;11.65;9.20;;;;;;;;;;4931110;29;20048;-80
2022/03/04 03:49:45;;;;;;;13.38;9.20;;;;;;;;;;4928621;29;20043;-80
2022/03/04 03:52:11;;;;;;;12.70;9.07;;;;;;;;;;4930094;29;20059;-79
2022/03/04 03:54:37;;;;;;;11.77;8.98;;;;;;;;;;4932288;29;20036;-79
2022/03/04 03:57:05;;;;;;;12.25;8.90;;;;;;;;;;4929692;29;20048;-79
2022/03/04 03:59:31;;;;;;;10.75;8.77;;;;;;;;;;4932588;29;20098;-80
2022/03/04 04:01:58;;;;;;;10.60;8.13;;;;;;;;;;4930282;29;20261;-79
2022/03/04 04:04:25;;;;;;;12.48;9.02;;;;;;;;;;4927695;29;20039;-79
2022/03/04 04:06:51;;;;;;;13.93;9.48;;;;;;;;;;4931094;29;20044;-79
2022/03/04 04:09:17;;;;;;;11.60;8.25;;;;;;;;;;4931144;29;20047;-80
2022/03/04 04:11:43;;;;;;;12.45;8.82;;;;;;;;;;4931024;29;20055;-79
2022/03/04 04:14:11;;;;;;;12.65;9.27;;;;;;;;;;4928652;29;20130;-79
2022/03/04 04:16:37;;;;;;;12.27;9.18;;;;;;;;;;4930724;29;20094;-80
2022/03/04 04:19:04;;;;;;;12.30;9.38;;;;;;;;;;4931439;29;20134;-79
2022/03/04 04:21:30;;;;;;;14.43;10.68;;;;;;;;;;4929253;29;20518;-80
2022/03/04 04:23:57;;;;;;;13.60;9.95;;;;;;;;;;4928123;29;20102;-79
2022/03/04 04:26:23;;;;;;;14.13;10.85;;;;;;;;;;4933550;29;20047;-79
2022/03/04 04:28:51;;;;;;;13.07;9.80;;;;;;;;;;4930732;29;20043;-79
2022/03/04 04:31:17;;;;;;;12.88;10.05;;;;;;;;;;4928651;29;20059;-78
2022/03/04 04:33:43;;;;;;;11.88;8.55;;;;;;;;;;4927674;29;20047;-78
2022/03/04 04:36:09;;;;;;;11.93;9.35;;;;;;;;;;4931841;29;20044;-78
2022/03/04 04:38:35;;;;;;;12.48;8.82;;;;;;;;;;4935187;29;20492;-78
2022/03/04 04:41:01;;;;;;;13.60;10.40;;;;;;;;;;4936380;29;20055;-79
2022/03/04 04:43:27;;;;;;;12.38;9.85;;;;;;;;;;4934628;29;20066;-78
2022/03/04 04:45:53;;;;;;;13.05;9.80;;;;;;;;;;4935478;29;20055;-78
2022/03/04 04:48:21;;;;;;;14.55;10.07;;;;;;;;;;4934684;29;20051;-79
2022/03/04 04:50:47;;;;;;;12.35;9.38;;;;;;;;;;4932461;29;20135;-78
2022/03/04 04:53:13;;;;;;;13.25;9.48;;;;;;;;;;4934166;29;20071;-80
2022/03/04 04:55:39;;;;;;;12.82;10.18;;;;;;;;;;4933020;29;20082;-80
2022/03/04 04:58:05;;;;;;;15.45;9.77;;;;;;;;;;4935614;29;20099;-79
2022/03/04 05:00:31;;;;;;;14.15;10.18;;;;;;;;;;4932849;29;20560;-79
2022/03/04 05:02:57;;;;;;;11.60;9.55;;;;;;;;;;4931118;29;20048;-79
2022/03/04 05:05:23;;;;;;;14.02;10.55;;;;;;;;;;4931157;29;20043;-79
2022/03/04 05:07:49;;;;;;;13.90;10.27;;;;;;;;;;4933653;29;20044;-79
2022/03/04 05:10:15;;;;;;;14.07;9.60;;;;;;;;;;4936082;29;20051;-79
2022/03/04 05:12:41;;;;;;;13.98;9.90;;;;;;;;;;4932302;29;20043;-79
2022/03/04 05:15:08;;;;;;;12.93;9.63;;;;;;;;;;4933029;29;20047;-79
2022/03/04 05:17:34;;;;;;;12.93;9.32;;;;;;;;;;4932104;29;20484;-79
2022/03/04 05:20:00;;;;;;;12.90;10.20;;;;;;;;;;4937707;29;20082;-79
2022/03/04 05:22:26;;;;;;;13.98;10.20;;;;;;;;;;4933447;29;20086;-80
2022/03/04 05:24:52;;;;;;;15.73;10.13;;;;;;;;;;4933437;29;20059;-80
2022/03/04 05:27:18;;;;;;;12.75;10.02;;;;;;;;;;4933368;29;20050;-79
2022/03/04 05:29:44;;;;;;;12.70;9.85;;;;;;;;;;4929791;29;20043;-79
2022/03/04 05:32:10;;;;;;;14.43;10.48;;;;;;;;;;4933483;29;20086;-80
2022/03/04 05:34:40;;;;;;;12.77;9.85;;;;;;;;;;4932963;29;20476;-80
2022/03/04 05:37:07;;;;;;;14.25;10.40;;;;;;;;;;4931859;29;20505;-79
2022/03/04 05:39:33;;;;;;;14.80;9.55;;;;;;;;;;4934498;29;20052;-79
2022/03/04 05:41:59;;;;;;;13.43;10.50;;;;;;;;;;4933177;29;20500;-80
2022/03/04 05:44:25;;;;;;;14.50;9.43;;;;;;;;;;4934662;29;20134;-79
2022/03/04 05:46:51;;;;;;;13.30;11.30;;;;;;;;;;4930376;29;20485;-79
2022/03/04 05:49:17;;;;;;;13.25;9.90;;;;;;;;;;4932271;29;20047;-79
2022/03/04 05:51:43;;;;;;;14.20;9.90;;;;;;;;;;4931611;29;20047;-81
2022/03/04 05:54:09;;;;;;;13.00;10.02;;;;;;;;;;4930129;29;20047;-79
2022/03/04 05:56:41;;;;;;;14.00;10.57;;;;;;;;;;4929233;29;20071;-79
2022/03/04 05:59:07;;;;;;;14.93;10.85;;;;;;;;;;4931701;29;20106;-79
2022/03/04 06:01:33;;;;;;;14.98;11.32;;;;;;;;;;4932447;29;20047;-79
2022/03/04 06:03:59;;;;;;;15.32;10.77;;;;;;;;;;4931587;29;20043;-79
2022/03/04 06:06:26;;;;;;;14.50;10.50;;;;;;;;;;4929359;29;20062;-79
2022/03/04 06:08:52;;;;;;;13.93;10.82;;;;;;;;;;4933578;29;20059;-79
2022/03/04 06:11:19;;;;;;;15.35;10.40;;;;;;;;;;4931460;29;20592;-79
2022/03/04 06:13:45;;;;;;;14.40;10.43;;;;;;;;;;4931395;29;20056;-79
2022/03/04 06:16:11;;;;;;;16.85;11.95;;;;;;;;;;4933628;29;20773;-79
2022/03/04 06:18:37;;;;;;;14.20;10.82;;;;;;;;;;4932897;29;20116;-78
2022/03/04 06:21:04;;;;;;;14.88;11.00;;;;;;;;;;4933638;29;20110;-80
2022/03/04 06:23:30;;;;;;;12.98;10.65;;;;;;;;;;4934101;29;20407;-80
2022/03/04 06:25:57;;;;;;;14.13;10.50;;;;;;;;;;4933124;29;20400;-79
2022/03/04 06:28:24;;;;;;;14.38;9.98;;;;;;;;;;4934425;29;20047;-79
2022/03/04 06:30:50;;;;;;;13.60;11.20;;;;;;;;;;4929701;29;20058;-79
2022/03/04 06:33:36;;;;;;;13.88;10.57;;;;;;;;;;4934314;29;20052;-79
2022/03/04 06:36:06;;;;;;;16.77;11.40;;;;;;;;;;4933950;29;20134;-80
2022/03/04 06:38:34;;;;;;;15.18;10.80;;;;;;;;;;4932944;29;20171;-80
2022/03/04 06:41:00;;;;;;;14.43;10.40;;;;;;;;;;4935029;29;20047;-79
2022/03/04 06:43:26;;;;;;;14.63;10.40;;;;;;;;;;4928106;29;20051;-79
2022/03/04 06:45:52;;;;;;;13.75;10.35;;;;;;;;;;4932848;29;20050;-79
2022/03/04 06:48:19;;;;;;;15.07;11.23;;;;;;;;;;4938088;29;20050;-79
2022/03/04 06:50:46;;;;;;;15.18;10.13;;;;;;;;;;4932227;29;20127;-79
2022/03/04 06:53:12;;;;;;;16.63;12.02;;;;;;;;;;4917090;29;20052;-79
2022/03/04 06:55:38;;;;;;;14.07;10.75;;;;;;;;;;4928587;29;20050;-79
2022/03/04 06:58:04;;;;;;;15.48;10.95;;;;;;;;;;4934245;29;20052;-79
2022/03/04 07:00:30;;;;;;;15.32;10.90;;;;;;;;;;4934802;29;20118;-79
2022/03/04 07:02:57;;;;;;;14.15;10.40;;;;;;;;;;4932664;29;20489;-79
2022/03/04 07:05:23;;;;;;;14.27;10.57;;;;;;;;;;4934151;29;20059;-79
2022/03/04 07:07:50;;;;;;;16.23;11.23;;;;;;;;;;4934416;29;20500;-80
2022/03/04 07:10:16;;;;;;;15.52;11.38;;;;;;;;;;4929835;29;20701;-79
2022/03/04 07:12:42;;;;;;;14.05;10.50;;;;;;;;;;4931637;29;20040;-80
2022/03/04 07:15:09;;;;;;;14.60;11.05;;;;;;;;;;4933318;29;20384;-80
2022/03/04 07:17:35;;;;;;;15.75;10.82;;;;;;;;;;4930497;29;20511;-80
2022/03/04 07:20:01;;;;;;;15.93;11.90;;;;;;;;;;4932800;29;20047;-80
2022/03/04 07:22:27;;;;;;;15.02;11.27;;;;;;;;;;4932906;29;20048;-80
2022/03/04 07:24:53;;;;;;;17.55;11.82;;;;;;;;;;4932183;29;20052;-79
2022/03/04 07:27:19;;;;;;;17.75;10.82;;;;;;;;;;4932620;29;20558;-80
2022/03/04 07:29:45;;;;;;;16.08;11.75;;;;;;;;;;4932240;29;20074;-79
2022/03/04 07:32:11;;;;;;;14.70;10.57;;;;;;;;;;4934219;29;20087;-79
2022/03/04 07:34:37;;;;;;;16.10;11.65;;;;;;;;;;4929907;29;20052;-79
2022/03/04 07:37:03;;;;;;;14.98;10.90;;;;;;;;;;4929831;29;20072;-79
2022/03/04 07:39:29;;;;;;;14.75;11.68;;;;;;;;;;4926675;29;20373;-79
2022/03/04 07:41:56;;;;;;;15.23;11.35;;;;;;;;;;4931140;29;20436;-79
2022/03/04 07:44:22;;;;;;;16.80;11.18;;;;;;;;;;4931764;29;20047;-79
2022/03/04 07:46:48;;;;;;;16.65;11.27;;;;;;;;;;4932465;29;20051;-79
2022/03/04 07:49:14;;;;;;;15.73;11.52;;;;;;;;;;4930977;29;20143;-79
2022/03/04 07:51:40;;;;;;;16.05;11.55;;;;;;;;;;4933293;29;20122;-79
2022/03/04 07:54:06;;;;;;;16.23;12.13;;;;;;;;;;4933813;29;20276;-79
2022/03/04 07:56:33;;;;;;;15.27;11.40;;;;;;;;;;4935106;29;20119;-79
2022/03/04 07:58:59;;;;;;;15.70;11.93;;;;;;;;;;4933510;29;20567;-79
2022/03/04 08:01:25;;;;;;;17.60;11.90;;;;;;;;;;4928401;29;20036;-79
2022/03/04 08:03:51;;;;;;;16.35;11.85;;;;;;;;;;4931838;29;20043;-79
2022/03/04 08:06:18;;;;;;;16.02;11.02;;;;;;;;;;4931918;29;20181;-79
2022/03/04 08:08:44;;;;;;;21.75;12.23;;;;;;;;;;4931881;29;20095;-79
2022/03/04 08:11:10;;;;;;;15.10;10.50;;;;;;;;;;4934460;29;20459;-79
2022/03/04 08:13:36;;;;;;;16.27;11.70;;;;;;;;;;4936452;29;20052;-80
2022/03/04 08:16:03;;;;;;;18.25;11.20;;;;;;;;;;4935068;29;20614;-79
2022/03/04 08:18:30;;;;;;;18.55;12.85;;;;;;;;;;4935979;29;20074;-80
2022/03/04 08:20:56;;;;;;;19.27;12.57;;;;;;;;;;4935144;29;20048;-79
2022/03/04 08:23:22;;;;;;;18.17;13.85;;;;;;;;;;4933790;29;20055;-80
2022/03/04 08:25:51;;;;;;;18.10;13.32;;;;;;;;;;4937760;29;20489;-79
2022/03/04 08:28:17;;;;;;;19.42;13.70;;;;;;;;;;4935238;29;20074;-79
2022/03/04 08:30:43;;;;;;;16.98;13.27;;;;;;;;;;4933180;29;20044;-79
2022/03/04 08:33:09;;;;;;;18.23;13.57;;;;;;;;;;4936776;29;20059;-79
2022/03/04 08:35:35;;;;;;;17.38;12.00;;;;;;;;;;4936693;29;20040;-79
2022/03/04 08:38:02;;;;;;;17.80;13.38;;;;;;;;;;4930937;29;20050;-81
2022/03/04 08:40:28;;;;;;;18.60;13.18;;;;;;;;;;4935288;29;20055;-79
2022/03/04 08:42:54;;;;;;;19.92;13.95;;;;;;;;;;4932172;29;20519;-79
2022/03/04 08:45:20;;;;;;;21.67;12.98;;;;;;;;;;4933397;29;20600;-79
2022/03/04 08:47:47;;;;;;;16.52;11.73;;;;;;;;;;4935686;29;20496;-79
2022/03/04 08:50:14;;;;;;;18.08;12.68;;;;;;;;;;4934722;29;20461;-79
2022/03/04 08:52:40;;;;;;;21.33;13.45;;;;;;;;;;4934836;29;20043;-79
2022/03/04 08:55:17;;;;;;;17.10;11.77;;;;;;;;;;4935364;29;20127;-79
2022/03/04 08:57:44;;;;;;;16.98;11.38;;;;;;;;;;4933390;29;20516;-79
2022/03/04 09:00:11;;;;;;;18.30;14.07;;;;;;;;;;4934067;29;20062;-79
2022/03/04 09:02:37;;;;;;;19.73;14.45;;;;;;;;;;4936483;29;20051;-78
2022/03/04 09:05:05;;;;;;;20.33;15.05;;;;;;;;;;4935371;29;20131;-79
2022/03/04 09:07:31;;;;;;;17.95;13.60;;;;;;;;;;4936832;29;20052;-79
2022/03/04 09:09:57;;;;;;;17.35;13.18;;;;;;;;;;4934715;29;20032;-79
2022/03/04 09:12:24;;;;;;;19.80;15.07;;;;;;;;;;4934130;29;20087;-79
2022/03/04 09:14:50;;;;;;;19.38;13.98;;;;;;;;;;4932248;29;20491;-79
2022/03/04 09:17:16;;;;;;;19.55;14.43;;;;;;;;;;4935342;29;20585;-79
2022/03/04 09:19:42;;;;;;;19.42;13.80;;;;;;;;;;4933667;29;20036;-79
2022/03/04 09:22:11;;;;;;;21.38;14.40;;;;;;;;;;4935252;29;20047;-79
2022/03/04 09:24:37;;;;;;;20.38;15.10;;;;;;;;;;4932681;29;20400;-79
2022/03/04 09:27:03;;;;;;;19.63;15.73;;;;;;;;;;4934904;29;20055;-79
2022/03/04 09:29:30;;;;;;;19.77;14.45;;;;;;;;;;4933898;29;20501;-79
2022/03/04 09:31:56;;;;;;;20.80;16.33;;;;;;;;;;4934160;29;20078;-79
2022/03/04 09:34:22;;;;;;;21.73;16.02;;;;;;;;;;4932235;29;20043;-79
2022/03/04 09:36:48;;;;;;;19.55;14.00;;;;;;;;;;4931412;29;20052;-79
2022/03/04 09:39:14;;;;;;;21.33;15.30;;;;;;;;;;4934913;29;20226;-79
2022/03/04 09:41:41;;;;;;;20.42;14.98;;;;;;;;;;4929200;29;20212;-79
2022/03/04 09:44:08;;;;;;;21.02;15.55;;;;;;;;;;4930571;29;20044;-79
2022/03/04 09:46:34;;;;;;;22.00;15.73;;;;;;;;;;4935185;29;20404;-79
2022/03/04 09:49:00;;;;;;;20.92;16.15;;;;;;;;;;4940410;29;20472;-79
2022/03/04 09:51:27;;;;;;;19.63;15.15;;;;;;;;;;4935426;29;20102;-79
2022/03/04 09:53:54;;;;;;;19.77;15.35;;;;;;;;;;4931625;29;20148;-79
2022/03/04 09:56:20;;;;;;;20.13;15.02;;;;;;;;;;4933507;29;20616;-79
2022/03/04 09:58:47;;;;;;;21.13;15.05;;;;;;;;;;4932110;29;20050;-79
2022/03/04 10:01:14;;;;;;;21.88;15.20;;;;;;;;;;4930513;29;20201;-79
2022/03/04 10:04:01;;;;;;;22.08;15.77;;;;;;;;;;4933984;29;20051;-79
2022/03/04 10:06:27;;;;;;;20.00;16.15;;;;;;;;;;4927995;29;20131;-79
2022/03/04 10:08:53;;;;;;;20.23;15.63;;;;;;;;;;4933834;29;20043;-80
2022/03/04 10:11:31;;;;;;;25.08;16.40;;;;;;;;;;4934632;29;20492;-79
2022/03/04 10:14:01;;;;;;;19.17;14.48;;;;;;;;;;4932242;29;20178;-79
2022/03/04 10:16:28;;;;;;;22.30;17.05;;;;;;;;;;4933584;29;20055;-79
2022/03/04 10:19:07;;;;;;;22.20;17.27;;;;;;;;;;4930657;29;20051;-79
2022/03/04 10:21:52;;;;;;;21.92;15.98;;;;;;;;;;4932305;29;20048;-80
2022/03/04 10:24:19;;;;;;;22.15;16.15;;;;;;;;;;4934179;29;20052;-78
2022/03/04 10:26:46;;;;;;;22.48;18.55;;;;;;;;;;4933591;29;20552;-79
2022/03/04 10:29:19;;;;;;;21.52;16.58;;;;;;;;;;4931989;29;20123;-78
2022/03/04 10:32:12;;;;;;;19.90;15.48;;;;;;;;;;4931280;29;20510;-79
2022/03/04 10:34:44;;;;;;;16.83;13.00;;;;;;;;;;4931259;29;20103;-79
2022/03/04 10:37:10;;;;;;;19.77;16.50;;;;;;;;;;4934371;29;20147;-80
2022/03/04 10:39:36;;;;;;;18.60;14.82;;;;;;;;;;4934524;29;20079;-79
2022/03/04 10:42:03;;;;;;;19.02;15.07;;;;;;;;;;4934209;29;20060;-79
2022/03/04 10:44:31;;;;;;;19.48;14.88;;;;;;;;;;4926065;29;20047;-79
2022/03/04 10:46:58;;;;;;;18.33;15.23;;;;;;;;;;4934586;29;20032;-79
2022/03/04 10:49:25;;;;;;;20.55;16.52;;;;;;;;;;4934162;29;20154;-79
2022/03/04 10:51:51;;;;;;;19.52;14.95;;;;;;;;;;4931650;29;20047;-79
2022/03/04 10:54:19;;;;;;;18.33;14.48;;;;;;;;;;4931690;29;20043;-79
2022/03/04 10:56:55;;;;;;;19.33;16.13;;;;;;;;;;4932863;29;20048;-78
2022/03/04 10:59:22;;;;;;;21.85;15.57;;;;;;;;;;4932569;29;20074;-79
2022/03/04 11:01:55;;;;;;;20.38;16.17;;;;;;;;;;4931544;29;20048;-79
2022/03/04 11:04:22;;;;;;;20.73;15.63;;;;;;;;;;4933111;29;20051;-79
2022/03/04 11:06:48;;;;;;;18.58;13.63;;;;;;;;;;4931624;29;20044;-79
2022/03/04 11:09:24;;;;;;;19.08;14.73;;;;;;;;;;4931512;29;20055;-79
2022/03/04 11:11:51;;;;;;;20.08;15.57;;;;;;;;;;4931814;29;20047;-79
2022/03/04 11:14:18;;;;;;;19.40;15.93;;;;;;;;;;4928881;29;20052;-79
2022/03/04 11:16:44;;;;;;;19.40;14.98;;;;;;;;;;4932671;29;20393;-79
2022/03/04 11:19:10;;;;;;;19.20;14.93;;;;;;;;;;4927716;29;20052;-80
2022/03/04 11:21:36;;;;;;;20.60;16.20;;;;;;;;;;4927426;29;20040;-78
2022/03/04 11:24:03;;;;;;;20.30;16.15;;;;;;;;;;4927291;29;20145;-80
2022/03/04 11:26:31;;;;;;;23.08;17.50;;;;;;;;;;4928749;29;20159;-80
2022/03/04 11:28:58;;;;;;;21.60;17.70;;;;;;;;;;4934001;29;20047;-80
2022/03/04 11:31:25;;;;;;;19.08;16.05;;;;;;;;;;4931946;29;20427;-80
2022/03/04 11:33:53;;;;;;;20.55;16.23;;;;;;;;;;4928465;29;20039;-79
2022/03/04 11:36:20;;;;;;;20.38;15.30;;;;;;;;;;4931326;29;20043;-78
2022/03/04 11:38:49;;;;;;;19.27;15.55;;;;;;;;;;4933246;29;20052;-79
2022/03/04 11:41:18;;;;;;;18.92;15.73;;;;;;;;;;4932585;29;20052;-78
2022/03/04 11:43:49;;;;;;;18.35;15.55;;;;;;;;;;4933179;29;20126;-79
2022/03/04 11:46:18;;;;;;;18.00;15.05;;;;;;;;;;4939997;29;20503;-79
2022/03/04 11:48:45;;;;;;;19.15;15.15;;;;;;;;;;4931075;29;20135;-76
2022/03/04 11:51:16;;;;;;;17.58;14.38;;;;;;;;;;4937005;29;20526;-76
2022/03/04 11:53:42;;;;;;;20.33;15.90;;;;;;;;;;4956226;29;20106;-80
2022/03/04 11:56:11;;;;;;;19.20;14.52;;;;;;;;;;4940313;29;20043;-80
2022/03/04 11:58:55;;;;;;;17.13;13.20;;;;;;;;;;4935443;29;20107;-80
2022/03/04 12:01:31;;;;;;;16.10;13.60;;;;;;;;;;4935246;29;20058;-79
2022/03/04 12:04:16;;;;;;;17.10;14.23;;;;;;;;;;4935490;29;20055;-80
2022/03/04 12:06:43;;;;;;;16.50;13.85;;;;;;;;;;4935329;29;20047;-79
2022/03/04 12:09:28;;;;;;;17.25;13.93;;;;;;;;;;4935778;29;20047;-80
2022/03/04 12:12:13;;;;;;;15.25;12.45;;;;;;;;;;4943182;29;20453;-79
2022/03/04 12:15:02;;;;;;;15.18;12.60;;;;;;;;;;4927236;29;20051;-79
2022/03/04 12:17:48;;;;;;;14.43;11.20;;;;;;;;;;4906722;29;20396;-78
2022/03/04 12:20:14;;;;;;;14.13;12.23;;;;;;;;;;4933338;29;20126;-79
2022/03/04 12:22:46;;;;;;;13.38;11.98;;;;;;;;;;4929109;29;20099;-79
2022/03/04 12:25:12;;;;;;;15.02;10.25;;;;;;;;;;4921751;29;20047;-79
2022/03/04 12:27:42;;;;;;;13.95;11.80;;;;;;;;;;4936836;29;20052;-78
2022/03/04 12:30:21;;;;;;;12.95;11.15;;;;;;;;;;4935207;29;20054;-79
2022/03/04 12:32:51;;;;;;;14.07;11.43;;;;;;;;;;4936833;29;20951;-78
2022/03/04 12:35:18;;;;;;;17.55;15.00;;;;;;;;;;4934020;29;20134;-78
2022/03/04 12:37:44;;;;;;;13.52;10.98;;;;;;;;;;4934057;29;20106;-78
2022/03/04 12:40:11;;;;;;;12.95;9.75;;;;;;;;;;4936535;29;20059;-78
2022/03/04 12:42:37;;;;;;;13.32;10.52;;;;;;;;;;4925146;29;20130;-78
2022/03/04 12:45:07;;;;;;;11.57;10.07;;;;;;;;;;4932050;29;20134;-78
2022/03/04 12:47:36;;;;;;;10.55;9.40;;;;;;;;;;4936281;29;23562;-79
2022/03/04 12:50:05;;;;;;;13.43;11.00;;;;;;;;;;4934906;29;20475;-79
2022/03/04 12:52:31;;;;;;;12.07;10.23;;;;;;;;;;4933860;29;20050;-79
2022/03/04 12:55:04;;;;;;;11.05;9.48;;;;;;;;;;4933916;29;20040;-78
2022/03/04 12:57:30;;;;;;;16.23;13.10;;;;;;;;;;4933046;29;20507;-77
2022/03/04 12:59:56;;;;;;;12.45;9.88;;;;;;;;;;4934782;29;20291;-77
2022/03/04 13:02:22;;;;;;;11.60;9.00;;;;;;;;;;4935158;29;20143;-77
2022/03/04 13:04:58;;;;;;;18.70;12.85;;;;;;;;;;4934721;29;20054;-81
2022/03/04 13:07:25;;;;;;;13.95;11.25;;;;;;;;;;4936100;29;20063;-80
2022/03/04 13:09:51;;;;;;;11.93;9.65;;;;;;;;;;4934843;29;20047;-79
2022/03/04 13:12:21;;;;;;;9.60;8.55;;;;;;;;;;4937341;29;20377;-79
2022/03/04 13:14:47;;;;;;;10.25;9.07;;;;;;;;;;4925092;29;20099;-84
2022/03/04 13:17:14;;;;;;;11.20;8.45;;;;;;;;;;4934525;29;20050;-85
2022/03/04 13:19:40;;;;;;;10.43;9.10;;;;;;;;;;4934246;29;20046;-85
2022/03/04 13:22:16;;;;;;;10.48;8.80;;;;;;;;;;4932937;29;20479;-85
2022/03/04 13:24:42;;;;;;;10.25;8.70;;;;;;;;;;4934655;29;20085;-86
2022/03/04 13:27:13;;;;;;;9.77;8.77;;;;;;;;;;4934647;29;20047;-85
2022/03/04 13:29:49;;;;;;;11.73;9.13;;;;;;;;;;4934944;29;20056;-85
2022/03/04 13:32:18;;;;;;;10.88;8.65;;;;;;;;;;4935514;29;20563;-86
2022/03/04 13:34:45;;;;;;;9.98;8.40;;;;;;;;;;4932339;29;20495;-86
2022/03/04 13:37:13;;;;;;;10.32;8.85;;;;;;;;;;4934786;29;20488;-85
2022/03/04 13:39:40;;;;;;;9.77;8.77;;;;;;;;;;4929492;29;20114;-87
2022/03/04 13:42:12;;;;;;;9.88;8.05;;;;;;;;;;4930053;29;20090;-87
2022/03/04 13:44:48;;;;;;;8.93;8.02;;;;;;;;;;4939674;29;20308;-88
2022/03/04 13:47:14;;;;;;;8.40;7.60;;;;;;;;;;4934584;29;20073;-86
2022/03/04 13:49:50;;;;;;;8.57;7.68;;;;;;;;;;4935367;29;20392;-87
2022/03/04 13:52:17;;;;;;;8.13;7.32;;;;;;;;;;4934208;29;20052;-82
2022/03/04 13:54:47;;;;;;;8.95;8.05;;;;;;;;;;4934597;29;20169;-81
2022/03/04 13:57:32;;;;;;;9.30;8.40;;;;;;;;;;4933341;29;20051;-84
2022/03/04 14:00:04;;;;;;;8.82;7.93;;;;;;;;;;4929477;29;20043;-79
2022/03/04 14:02:37;;;;;;;8.27;7.47;;;;;;;;;;4933417;29;20059;-79
2022/03/04 14:05:04;;;;;;;8.20;7.40;;;;;;;;;;4932543;29;20130;-84
2022/03/04 14:07:39;;;;;;;8.07;7.35;;;;;;;;;;4933360;29;20048;-82
2022/03/04 14:10:10;;;;;;;10.07;7.32;;;;;;;;;;4936117;29;20060;-82
2022/03/04 14:12:36;;;;;;;6.90;6.30;;;;;;;;;;4930789;29;20119;-81
2022/03/04 14:15:02;;;;;;;8.15;7.35;;;;;;;;;;4933193;29;20050;-82
2022/03/04 14:17:28;;;;;;;8.30;7.50;;;;;;;;;;4933551;29;20047;-81
2022/03/04 14:19:55;;;;;;;7.75;7.05;;;;;;;;;;4933582;29;20233;-82
2022/03/04 14:22:21;;;;;;;6.75;6.15;;;;;;;;;;4932905;29;20098;-82
2022/03/04 14:24:47;;;;;;;6.65;6.05;;;;;;;;;;4928737;29;20086;-82